createdAt,value
2022-09-12T00:02:03.585Z,100.00
2022-09-12T00:04:30.673Z,100.00
2022-09-12T00:06:57.993Z,100.00
2022-09-12T00:09:24.952Z,100.00
2022-09-12T00:11:51.870Z,100.00
2022-09-12T00:14:19.399Z,100.00
2022-09-12T00:16:46.474Z,100.00
2022-09-12T00:19:13.584Z,100.00
2022-09-12T00:21:41.040Z,100.00
2022-09-12T00:24:09.173Z,100.00
2022-09-12T00:26:36.138Z,100.00
2022-09-12T00:29:03.179Z,100.00
2022-09-12T00:31:30.338Z,100.00
2022-09-12T00:34:00.959Z,100.00
2022-09-12T00:36:29.708Z,100.00
2022-09-12T00:38:56.649Z,100.00
2022-09-12T00:41:27.214Z,100.00
2022-09-12T00:43:59.826Z,100.00
2022-09-12T00:46:44.358Z,100.00
2022-09-12T00:49:57.690Z,100.00
2022-09-12T00:52:55.020Z,100.00
2022-09-12T00:55:28.574Z,100.00
2022-09-12T00:58:09.795Z,100.00
2022-09-12T01:00:36.613Z,100.00
2022-09-12T01:03:11.398Z,100.00
2022-09-12T01:05:44.655Z,100.00
2022-09-12T01:08:12.579Z,100.00
2022-09-12T01:10:42.226Z,100.00
2022-09-12T01:13:11.189Z,100.00
2022-09-12T01:15:39.841Z,100.00
2022-09-12T01:18:51.742Z,100.00
2022-09-12T01:21:47.367Z,100.00
2022-09-12T01:24:49.065Z,100.00
2022-09-12T01:27:53.580Z,100.00
2022-09-12T01:30:55.660Z,100.00
2022-09-12T01:34:20.745Z,100.00
2022-09-12T01:37:06.013Z,100.00
2022-09-12T01:40:16.486Z,100.00
2022-09-12T01:43:18.548Z,100.00
2022-09-12T01:46:01.229Z,100.00
2022-09-12T01:48:37.224Z,100.00
2022-09-12T01:51:19.023Z,100.00
2022-09-12T01:53:51.014Z,100.00
2022-09-12T01:56:28.842Z,100.00
2022-09-12T01:59:11.405Z,100.00
2022-09-12T02:01:47.706Z,100.00
2022-09-12T02:04:25.110Z,100.00
2022-09-12T02:07:29.150Z,100.00
2022-09-12T02:10:32.528Z,100.00
2022-09-12T02:13:22.234Z,100.00
2022-09-12T02:15:54.629Z,100.00
2022-09-12T02:18:21.753Z,100.00
2022-09-12T02:20:50.435Z,100.00
2022-09-12T02:23:41.392Z,100.00
2022-09-12T02:26:20.643Z,100.00
2022-09-12T02:28:48.225Z,100.00
2022-09-12T02:31:54.874Z,100.00
2022-09-12T02:34:49.639Z,100.00
2022-09-12T02:38:02.268Z,100.00
2022-09-12T02:40:30.528Z,100.00
2022-09-12T02:42:58.020Z,100.00
2022-09-12T02:45:25.036Z,100.00
2022-09-12T02:48:25.322Z,100.00
2022-09-12T02:50:52.262Z,100.00
2022-09-12T02:53:19.724Z,100.00
2022-09-12T02:55:47.031Z,100.00
2022-09-12T02:58:18.835Z,100.00
2022-09-12T03:01:20.184Z,100.00
2022-09-12T03:04:33.380Z,100.00
2022-09-12T03:07:50.707Z,100.00
2022-09-12T03:40:28.222Z,100.00
2022-09-12T03:42:56.337Z,100.00
2022-09-12T03:45:24.242Z,100.00
2022-09-12T03:47:51.158Z,100.00
2022-09-12T03:50:18.229Z,100.00
2022-09-12T03:52:45.286Z,100.00
2022-09-12T03:55:12.407Z,100.00
2022-09-12T03:57:39.321Z,100.00
2022-09-12T04:00:08.826Z,100.00
2022-09-12T04:02:42.337Z,100.00
2022-09-12T04:05:09.451Z,100.00
2022-09-12T04:07:36.436Z,100.00
2022-09-12T04:10:04.117Z,100.00
2022-09-12T04:12:31.150Z,100.00
2022-09-12T04:14:58.112Z,100.00
2022-09-12T04:17:25.117Z,100.00
2022-09-12T04:19:52.097Z,100.00
2022-09-12T04:22:18.977Z,100.00
2022-09-12T04:24:45.942Z,100.00
2022-09-12T04:27:12.851Z,100.00
2022-09-12T04:29:39.807Z,100.00
2022-09-12T04:32:06.707Z,100.00
2022-09-12T04:34:33.716Z,100.00
2022-09-12T04:37:00.698Z,100.00
2022-09-12T04:39:27.718Z,100.00
2022-09-12T04:41:54.789Z,100.00
2022-09-12T04:44:21.875Z,100.00
2022-09-12T04:46:48.917Z,100.00
2022-09-12T04:49:19.605Z,100.00
2022-09-12T04:51:47.352Z,100.00
2022-09-12T04:54:17.392Z,100.00
2022-09-12T04:56:47.735Z,100.00
2022-09-12T04:59:17.640Z,100.00
2022-09-12T05:01:45.035Z,100.00
2022-09-12T05:04:13.234Z,100.00
2022-09-12T05:06:41.997Z,100.00
2022-09-12T05:09:20.312Z,100.00
2022-09-12T05:12:05.470Z,100.00
2022-09-12T05:14:40.519Z,100.00
2022-09-12T05:17:10.580Z,100.00
2022-09-12T05:19:46.122Z,100.00
2022-09-12T05:22:14.742Z,100.00
2022-09-12T05:24:47.264Z,100.00
2022-09-12T05:27:16.967Z,100.00
2022-09-12T05:29:44.001Z,100.00
2022-09-12T05:32:12.741Z,100.00
2022-09-12T05:34:40.693Z,100.00
2022-09-12T05:37:07.872Z,100.00
2022-09-12T05:39:35.115Z,100.00
2022-09-12T05:42:02.584Z,100.00
2022-09-12T05:44:29.581Z,100.00
2022-09-12T05:46:56.529Z,100.00
2022-09-12T05:49:23.653Z,100.00
2022-09-12T05:51:51.805Z,100.00
2022-09-12T05:54:20.723Z,100.00
2022-09-12T05:56:49.108Z,100.00
2022-09-12T05:59:21.081Z,100.00
2022-09-12T06:01:48.805Z,100.00
2022-09-12T06:04:16.371Z,100.00
2022-09-12T06:06:48.898Z,100.00
2022-09-12T06:09:16.963Z,100.00
2022-09-12T06:11:45.538Z,100.00
2022-09-12T06:14:19.837Z,100.00
2022-09-12T06:16:51.386Z,100.00
2022-09-12T06:19:25.762Z,100.00
2022-09-12T06:21:54.810Z,100.00
2022-09-12T06:24:26.324Z,100.00
2022-09-12T06:26:58.155Z,100.00
2022-09-12T06:29:28.943Z,100.00
2022-09-12T06:32:02.952Z,100.00
2022-09-12T06:34:31.645Z,98.20
2022-09-12T06:37:01.975Z,100.00
2022-09-12T06:39:30.705Z,100.00
2022-09-12T06:42:00.208Z,100.00
2022-09-12T06:44:34.342Z,100.00
2022-09-12T06:47:01.366Z,100.00
2022-09-12T06:49:28.614Z,100.00
2022-09-12T06:51:55.585Z,100.00
2022-09-12T06:54:23.454Z,100.00
2022-09-12T06:56:50.520Z,100.00
2022-09-12T06:59:17.453Z,100.00
2022-09-12T07:01:44.626Z,99.95
2022-09-12T07:04:11.762Z,97.29
2022-09-12T07:06:41.322Z,95.42
2022-09-12T07:09:10.985Z,93.99
2022-09-12T07:11:39.600Z,94.84
2022-09-12T07:14:07.965Z,91.79
2022-09-12T07:16:38.082Z,92.07
2022-09-12T07:19:07.451Z,87.14
2022-09-12T07:21:40.795Z,86.40
2022-09-12T07:24:10.496Z,88.19
2022-09-12T07:26:42.612Z,86.77
2022-09-12T07:32:04.326Z,84.63
2022-09-12T07:34:31.939Z,84.66
2022-09-12T07:36:59.103Z,84.38
2022-09-12T07:39:26.372Z,83.94
2022-09-12T07:41:53.261Z,81.77
2022-09-12T07:44:21.586Z,80.31
2022-09-12T07:46:48.455Z,81.54
2022-09-12T07:49:15.330Z,81.18
2022-09-12T07:51:42.230Z,78.17
2022-09-12T07:54:13.312Z,77.90
2022-09-12T07:56:40.972Z,78.63
2022-09-12T07:59:08.838Z,78.19
2022-09-12T08:14:56.998Z,75.25
2022-09-12T08:17:24.008Z,74.66
2022-09-12T08:19:50.990Z,75.98
2022-09-12T08:22:18.905Z,75.53
2022-09-12T08:24:45.926Z,73.68
2022-09-12T08:27:15.028Z,74.43
2022-09-12T08:29:42.452Z,75.52
2022-09-12T08:32:09.522Z,75.79
2022-09-12T08:34:36.536Z,74.76
2022-09-12T08:37:04.353Z,74.90
2022-09-12T08:39:32.884Z,75.46
2022-09-12T08:42:05.629Z,75.46
2022-09-12T08:45:10.077Z,74.56
2022-09-12T08:47:41.748Z,74.37
2022-09-12T08:50:20.863Z,73.03
2022-09-12T08:53:04.535Z,70.46
2022-09-12T08:55:41.159Z,72.49
2022-09-12T08:58:24.668Z,67.20
2022-09-12T09:01:15.782Z,67.28
2022-09-12T09:04:06.164Z,67.66
2022-09-12T09:07:21.302Z,68.81
2022-09-12T09:42:40.471Z,68.87
2022-09-12T09:45:21.284Z,67.98
2022-09-12T09:48:44.115Z,65.22
2022-09-12T09:51:12.230Z,63.42
2022-09-12T09:54:05.984Z,65.58
2022-09-12T09:56:42.730Z,62.86
2022-09-12T09:59:17.297Z,62.22
2022-09-12T10:01:50.342Z,60.09
2022-09-12T10:04:20.263Z,59.93
2022-09-12T10:06:47.454Z,57.22
2022-09-12T10:09:33.375Z,58.13
2022-09-12T10:12:02.486Z,60.22
2022-09-12T10:14:40.652Z,60.98
2022-09-12T10:17:34.706Z,57.43
2022-09-12T10:20:21.655Z,59.43
2022-09-12T10:22:49.882Z,63.66
2022-09-12T10:25:20.470Z,56.78
2022-09-12T10:27:54.614Z,58.79
2022-09-12T10:30:25.220Z,58.25
2022-09-12T10:32:52.530Z,54.45
2022-09-12T10:35:31.306Z,50.84
2022-09-12T10:38:05.190Z,51.45
2022-09-12T10:40:38.012Z,53.62
2022-09-12T10:43:18.348Z,54.87
2022-09-12T10:45:45.606Z,55.52
2022-09-12T10:48:32.331Z,51.56
2022-09-12T10:51:01.289Z,53.51
2022-09-12T10:53:34.538Z,52.81
2022-09-12T10:56:08.833Z,55.29
2022-09-12T10:59:18.088Z,54.19
2022-09-12T11:01:48.977Z,52.40
2022-09-12T11:04:53.211Z,52.23
2022-09-12T11:07:59.622Z,51.59
2022-09-12T11:11:07.856Z,50.60
2022-09-12T11:14:09.516Z,51.28
2022-09-12T11:17:13.917Z,51.80
2022-09-12T11:20:31.767Z,51.82
2022-09-12T11:23:17.941Z,51.93
2022-09-12T11:26:06.317Z,50.89
2022-09-12T11:29:02.065Z,51.50
2022-09-12T11:32:02.219Z,53.21
2022-09-12T11:35:22.672Z,50.63
2022-09-12T11:38:40.301Z,49.27
2022-09-12T11:41:41.654Z,50.05
2022-09-12T11:44:40.351Z,51.58
2022-09-12T11:47:17.102Z,51.63
2022-09-12T11:49:52.562Z,48.63
2022-09-12T11:52:30.420Z,47.99
2022-09-12T11:55:04.174Z,49.09
2022-09-12T11:57:41.874Z,48.01
2022-09-12T12:00:30.922Z,47.16
2022-09-12T12:03:38.493Z,48.71
2022-09-12T12:06:19.574Z,48.77
2022-09-12T12:08:47.516Z,50.76
2022-09-12T12:11:26.050Z,48.57
2022-09-12T12:14:20.070Z,47.99
2022-09-12T12:16:47.780Z,49.98
2022-09-12T12:19:36.189Z,51.14
2022-09-12T12:22:23.347Z,53.02
2022-09-12T12:25:33.197Z,52.30
2022-09-12T12:28:06.630Z,52.92
2022-09-12T12:31:02.760Z,53.60
2022-09-12T12:33:53.975Z,52.10
2022-09-12T12:36:41.094Z,52.66
2022-09-12T12:39:54.091Z,53.61
2022-09-12T12:42:57.841Z,53.12
2022-09-12T12:45:48.628Z,51.52
2022-09-12T12:48:19.362Z,51.88
2022-09-12T12:50:46.817Z,52.51
2022-09-12T12:53:28.598Z,55.13
2022-09-12T12:55:56.361Z,55.44
2022-09-12T12:58:43.108Z,54.72
2022-09-12T13:01:17.215Z,54.89
2022-09-12T13:03:54.475Z,56.69
2022-09-12T13:06:41.858Z,56.98
2022-09-12T13:09:23.261Z,57.34
2022-09-12T13:12:01.419Z,58.99
2022-09-12T13:14:56.582Z,58.95
2022-09-12T13:17:45.094Z,56.38
2022-09-12T13:20:28.371Z,52.53
2022-09-12T13:22:56.867Z,53.77
2022-09-12T13:25:32.515Z,53.49
2022-09-12T13:28:28.919Z,53.87
2022-09-12T13:31:26.462Z,53.52
2022-09-12T13:34:00.758Z,55.48
2022-09-12T13:37:06.701Z,55.06
2022-09-12T13:40:05.626Z,53.73
2022-09-12T13:42:40.166Z,55.35
2022-09-12T13:45:38.462Z,53.03
2022-09-12T13:48:10.391Z,51.35
2022-09-12T13:50:43.108Z,52.33
2022-09-12T13:53:17.650Z,52.21
2022-09-12T13:55:52.211Z,51.44
2022-09-12T13:58:27.898Z,50.73
2022-09-12T14:01:22.916Z,47.82
2022-09-12T14:04:15.318Z,47.26
2022-09-12T14:06:48.971Z,49.57
2022-09-12T14:09:34.918Z,47.02
2022-09-12T14:12:03.336Z,47.65
2022-09-12T14:14:36.825Z,46.39
2022-09-12T14:17:24.233Z,47.88
2022-09-12T14:19:52.948Z,49.08
2022-09-12T14:22:20.048Z,49.47
2022-09-12T14:24:51.764Z,49.50
2022-09-12T14:27:29.459Z,50.90
2022-09-12T14:30:09.231Z,52.86
2022-09-12T14:32:36.523Z,52.39
2022-09-12T14:35:33.488Z,53.49
2022-09-12T14:38:13.114Z,52.66
2022-09-12T14:40:46.301Z,53.84
2022-09-12T14:43:32.617Z,55.43
2022-09-12T14:46:02.961Z,54.56
2022-09-12T14:48:33.295Z,55.59
2022-09-12T14:51:01.737Z,55.11
2022-09-12T14:53:34.734Z,55.46
2022-09-12T14:56:13.285Z,55.95
2022-09-12T14:58:41.618Z,56.91
2022-09-12T15:01:28.852Z,56.84
2022-09-12T15:03:56.392Z,57.09
2022-09-12T15:06:33.845Z,58.40
2022-09-12T15:09:06.377Z,60.37
2022-09-12T15:11:34.012Z,61.05
2022-09-12T15:14:13.091Z,62.31
2022-09-12T15:16:40.151Z,62.98
2022-09-12T15:19:07.248Z,64.34
2022-09-12T15:21:34.173Z,65.91
2022-09-12T15:24:01.189Z,66.05
2022-09-12T15:26:30.836Z,63.30
2022-09-12T15:28:58.241Z,61.97
2022-09-12T15:31:30.742Z,63.28
2022-09-12T15:34:00.594Z,63.36
2022-09-12T15:36:29.164Z,63.27
2022-09-12T15:38:56.492Z,59.58
2022-09-12T15:41:27.725Z,52.19
2022-09-12T15:43:54.702Z,51.58
2022-09-12T15:46:21.673Z,53.35
2022-09-12T15:48:48.962Z,55.86
2022-09-12T15:51:21.288Z,58.01
2022-09-12T15:53:50.269Z,57.47
2022-09-12T15:56:19.229Z,53.54
2022-09-12T15:58:58.385Z,49.52
2022-09-12T16:01:27.351Z,47.83
2022-09-12T16:03:54.416Z,45.28
2022-09-12T16:06:22.483Z,41.92
2022-09-12T16:08:49.701Z,40.31
2022-09-12T16:11:27.503Z,42.89
2022-09-12T16:13:56.824Z,44.38
2022-09-12T16:16:23.918Z,45.44
2022-09-12T16:18:50.907Z,48.32
2022-09-12T16:21:18.330Z,50.34
2022-09-12T16:23:46.737Z,51.54
2022-09-12T16:26:13.969Z,52.65
2022-09-12T16:28:41.226Z,52.86
2022-09-12T16:31:11.953Z,53.68
2022-09-12T16:33:39.433Z,53.31
2022-09-12T16:36:09.561Z,53.81
2022-09-12T16:38:44.728Z,55.10
2022-09-12T16:41:12.206Z,55.63
2022-09-12T16:43:40.361Z,56.24
2022-09-12T16:46:19.666Z,56.94
2022-09-12T16:48:52.066Z,57.06
2022-09-12T16:51:22.676Z,58.18
2022-09-12T16:53:50.501Z,57.82
2022-09-12T16:56:17.850Z,59.35
2022-09-12T16:58:45.323Z,60.19
2022-09-12T17:01:15.322Z,61.24
2022-09-12T17:03:42.391Z,61.50
2022-09-12T17:06:12.105Z,61.72
2022-09-12T17:08:42.960Z,61.56
2022-09-12T17:11:17.454Z,62.27
2022-09-12T17:14:06.181Z,62.83
2022-09-12T17:16:35.525Z,61.92
2022-09-12T17:19:02.686Z,61.76
2022-09-12T17:21:29.705Z,60.95
2022-09-12T17:23:56.743Z,61.64
2022-09-12T17:26:25.206Z,62.00
2022-09-12T17:28:52.237Z,62.74
2022-09-12T17:31:19.170Z,63.08
2022-09-12T17:33:46.407Z,64.43
2022-09-12T17:36:16.681Z,64.07
2022-09-12T17:38:45.348Z,63.50
2022-09-12T17:41:17.970Z,63.69
2022-09-12T17:43:46.682Z,62.30
2022-09-12T17:46:14.316Z,63.84
2022-09-12T17:48:41.856Z,64.71
2022-09-12T17:51:14.988Z,64.96
2022-09-12T17:53:42.593Z,65.08
2022-09-12T17:56:11.313Z,65.46
2022-09-12T17:58:38.809Z,65.97
2022-09-12T18:01:32.143Z,66.18
2022-09-12T18:04:03.714Z,66.06
2022-09-12T18:06:31.939Z,65.30
2022-09-12T18:09:07.689Z,66.12
2022-09-12T18:11:35.415Z,65.13
2022-09-12T18:14:02.908Z,65.97
2022-09-12T18:16:31.582Z,65.82
2022-09-12T18:19:01.580Z,66.82
2022-09-12T18:21:29.366Z,66.58
2022-09-12T18:24:00.311Z,66.87
2022-09-12T18:26:28.812Z,68.74
2022-09-12T18:28:56.202Z,68.96
2022-09-12T18:31:25.034Z,69.62
2022-09-12T18:33:52.278Z,70.32
2022-09-12T18:36:20.090Z,70.87
2022-09-12T18:38:48.137Z,70.54
2022-09-12T18:41:22.671Z,71.54
2022-09-12T18:43:54.341Z,71.51
2022-09-12T18:46:21.297Z,71.46
2022-09-12T18:48:48.350Z,72.69
2022-09-12T18:51:18.145Z,73.22
2022-09-12T18:53:53.522Z,73.09
2022-09-12T18:56:21.701Z,73.17
2022-09-12T18:58:56.909Z,73.47
2022-09-12T19:01:29.369Z,74.14
2022-09-12T19:03:57.091Z,74.77
2022-09-12T19:06:27.022Z,74.74
2022-09-12T19:08:55.645Z,74.57
2022-09-12T19:11:23.778Z,74.15
2022-09-12T19:13:52.042Z,74.20
2022-09-12T19:16:21.938Z,75.20
2022-09-12T19:18:49.830Z,74.79
2022-09-12T19:21:24.829Z,73.21
2022-09-12T19:23:53.155Z,72.38
2022-09-12T19:26:21.470Z,72.91
2022-09-12T19:28:48.912Z,74.87
2022-09-12T19:31:21.828Z,74.43
2022-09-12T19:33:49.750Z,74.06
2022-09-12T19:36:41.227Z,74.05
2022-09-12T19:39:07.050Z,73.93
2022-09-12T19:41:34.069Z,73.91
2022-09-12T19:44:01.553Z,72.21
2022-09-12T19:46:28.515Z,74.46
2022-09-12T19:48:55.630Z,74.33
2022-09-12T19:51:24.156Z,72.72
2022-09-12T19:53:51.718Z,71.94
2022-09-12T19:56:18.814Z,73.59
2022-09-12T19:58:50.877Z,74.16
2022-09-12T20:01:25.026Z,74.77
2022-09-12T20:03:55.269Z,75.60
2022-09-12T20:06:22.691Z,75.30
2022-09-12T20:08:50.070Z,73.74
2022-09-12T20:11:19.642Z,74.07
2022-09-12T20:13:46.945Z,73.16
2022-09-12T20:16:25.887Z,74.16
2022-09-12T20:18:55.459Z,74.89
2022-09-12T20:21:31.899Z,74.94
2022-09-12T20:24:17.352Z,74.72
2022-09-12T20:26:44.844Z,74.90
2022-09-12T20:29:12.035Z,73.79
2022-09-12T20:31:41.160Z,74.53
2022-09-12T20:34:14.700Z,74.50
2022-09-12T20:36:41.822Z,74.61
2022-09-12T20:39:14.822Z,74.62
2022-09-12T20:41:41.774Z,75.65
2022-09-12T20:44:09.424Z,76.38
2022-09-12T20:46:36.647Z,76.15
2022-09-12T20:49:04.167Z,76.94
2022-09-12T20:51:31.574Z,76.32
2022-09-12T20:54:00.629Z,76.76
2022-09-12T20:56:28.766Z,77.23
2022-09-12T20:58:56.136Z,77.37
2022-09-12T21:01:23.770Z,77.52
2022-09-12T21:03:51.175Z,77.32
2022-09-12T21:06:19.221Z,77.02
2022-09-12T21:08:47.359Z,77.22
2022-09-12T21:11:15.308Z,76.72
2022-09-12T21:13:42.348Z,77.10
2022-09-12T21:16:14.312Z,76.96
2022-09-12T21:18:41.616Z,76.15
2022-09-12T21:21:10.748Z,76.99
2022-09-12T21:23:38.041Z,76.79
2022-09-12T21:26:05.063Z,77.08
2022-09-12T21:28:31.969Z,77.36
2022-09-12T21:30:58.929Z,77.76
2022-09-12T21:33:26.171Z,77.70
2022-09-12T21:35:53.044Z,78.93
2022-09-12T21:38:20.778Z,79.17
2022-09-12T21:40:47.982Z,79.21
2022-09-12T21:43:15.113Z,79.34
2022-09-12T21:45:42.254Z,79.64
2022-09-12T21:48:09.443Z,80.17
2022-09-12T21:50:36.367Z,80.27
2022-09-12T21:53:03.337Z,80.34
2022-09-12T21:55:30.227Z,80.18
2022-09-12T21:57:57.442Z,79.93
2022-09-12T22:00:24.411Z,78.72
2022-09-12T22:02:51.315Z,80.11
2022-09-12T22:05:20.486Z,80.30
2022-09-12T22:07:47.388Z,80.92
2022-09-12T22:10:14.888Z,80.79
2022-09-12T22:12:46.212Z,81.18
2022-09-12T22:15:39.035Z,80.79
2022-09-12T22:18:01.449Z,81.80
2022-09-12T22:20:28.461Z,82.51
2022-09-12T22:23:13.757Z,83.23
2022-09-12T22:25:40.949Z,83.28
2022-09-12T22:28:07.820Z,84.05
2022-09-12T22:30:34.794Z,84.76
2022-09-12T22:33:01.744Z,85.20
2022-09-12T22:35:28.626Z,85.18
2022-09-12T22:37:55.539Z,85.94
2022-09-12T22:40:22.469Z,85.78
2022-09-12T22:42:52.442Z,86.15
2022-09-12T22:45:20.075Z,86.39
2022-09-12T22:47:47.087Z,86.87
2022-09-12T22:50:14.226Z,86.32
2022-09-12T22:52:41.791Z,87.48
2022-09-12T22:55:09.215Z,86.93
2022-09-12T22:57:36.471Z,87.55
2022-09-12T23:00:14.162Z,87.25
2022-09-12T23:02:41.474Z,86.90
2022-09-12T23:05:08.942Z,88.57
2022-09-12T23:07:35.855Z,88.67
2022-09-12T23:10:02.810Z,89.29
2022-09-12T23:12:32.033Z,89.84
2022-09-12T23:14:58.973Z,90.26
2022-09-12T23:17:25.878Z,90.38
2022-09-12T23:19:52.912Z,90.71
2022-09-12T23:22:20.040Z,90.50
2022-09-12T23:24:47.266Z,90.49
2022-09-12T23:27:14.214Z,90.07
2022-09-12T23:29:41.087Z,89.75
2022-09-12T23:32:08.113Z,88.75
2022-09-12T23:34:35.037Z,88.86
2022-09-12T23:37:01.937Z,88.99
2022-09-12T23:39:28.957Z,90.42
2022-09-12T23:41:55.903Z,92.08
2022-09-12T23:44:22.806Z,92.72
2022-09-12T23:46:49.713Z,91.12
2022-09-12T23:49:16.598Z,90.95
2022-09-12T23:51:43.565Z,91.25
2022-09-12T23:54:10.501Z,91.86
2022-09-12T23:56:37.390Z,91.58
2022-09-12T23:59:04.490Z,91.50
